Time;durP1;ratioP1;P1;durP2;ratioP2;P2;SDS_P1;SDS_P2;PMS_P1;PMS_P2;Temp;Humidity;BMP_temperature;BMP_pressure;BME280_temperature;BME280_humidity;BME280_pressure;Samples;Min_cycle;Max_cycle;Signal;HPM_P1;HPM_P2
2022/05/22 00:01:29;;;;;;;5.47;3.17;;;13.10;99.90;;;;;;5014811;28;20895;-80
2022/05/22 00:03:56;;;;;;;5.20;3.10;;;13.20;99.90;;;;;;5015877;28;20550;-80
2022/05/22 00:06:23;;;;;;;5.00;2.90;;;13.20;99.90;;;;;;5015577;28;20539;-78
2022/05/22 00:08:51;;;;;;;7.43;3.40;;;13.30;99.90;;;;;;5016335;28;20553;-79
2022/05/22 00:11:18;;;;;;;9.30;3.30;;;13.30;99.90;;;;;;5015496;28;20480;-79
2022/05/22 00:13:44;;;;;;;10.10;3.70;;;13.40;99.90;;;;;;5015709;28;20463;-79
2022/05/22 00:18:55;;;;;;;7.23;3.13;;;13.40;99.90;;;;;;5013999;28;20424;-79
2022/05/22 00:21:23;;;;;;;6.10;3.10;;;13.40;99.90;;;;;;5015117;28;20492;-80
2022/05/22 00:23:52;;;;;;;6.53;3.20;;;13.40;99.90;;;;;;5016233;28;20579;-79
2022/05/22 00:26:18;;;;;;;5.47;3.10;;;13.40;99.90;;;;;;5015982;28;20465;-79
2022/05/22 00:28:45;;;;;;;6.17;3.37;;;13.40;99.90;;;;;;5016473;28;20476;-79
2022/05/22 00:31:12;;;;;;;7.33;3.77;;;13.40;99.90;;;;;;5014681;28;20476;-80
2022/05/22 00:33:41;;;;;;;6.30;3.10;;;13.30;99.90;;;;;;5015516;28;20553;-81
2022/05/22 00:36:10;;;;;;;12.70;2.93;;;13.40;99.90;;;;;;5015927;28;20455;-79
2022/05/22 00:38:37;;;;;;;7.73;3.70;;;13.40;99.90;;;;;;5016501;28;20506;-79
2022/05/22 00:41:06;;;;;;;5.03;3.80;;;13.40;99.90;;;;;;5017347;28;20500;-79
2022/05/22 00:43:38;;;;;;;9.03;3.73;;;13.40;99.90;;;;;;5016913;28;20559;-79
2022/05/22 00:46:12;;;;;;;5.30;3.63;;;13.30;99.90;;;;;;5006008;28;20605;-79
2022/05/22 00:48:40;;;;;;;6.50;4.40;;;13.40;99.90;;;;;;5016517;28;20453;-79
2022/05/22 00:51:11;;;;;;;5.83;3.53;;;13.40;99.90;;;;;;5015920;28;20567;-80
2022/05/22 00:53:48;;;;;;;7.73;3.90;;;13.40;99.90;;;;;;5016006;28;20458;-79
2022/05/22 00:56:23;;;;;;;11.47;4.97;;;13.40;99.90;;;;;;5015284;28;20524;-80
2022/05/22 00:58:54;;;;;;;4.90;3.40;;;13.40;99.90;;;;;;5015906;28;20860;-79
2022/05/22 01:01:21;;;;;;;6.47;3.60;;;13.40;99.90;;;;;;5014276;28;20493;-79
2022/05/22 01:03:51;;;;;;;7.47;3.77;;;13.40;99.90;;;;;;5014775;28;20460;-80
2022/05/22 01:06:24;;;;;;;11.00;4.70;;;13.40;99.90;;;;;;4997930;28;20469;-79
2022/05/22 01:08:53;;;;;;;9.20;4.80;;;13.30;99.90;;;;;;5015157;28;20518;-80
2022/05/22 01:11:27;;;;;;;10.53;4.70;;;13.30;99.90;;;;;;5014871;28;20473;-79
2022/05/22 01:13:57;;;;;;;14.10;5.00;;;13.20;99.90;;;;;;5015800;28;20485;-79
2022/05/22 01:16:25;;;;;;;7.60;4.23;;;13.10;99.90;;;;;;5015173;28;20447;-80
2022/05/22 01:18:58;;;;;;;8.07;3.73;;;13.10;99.90;;;;;;5014397;28;20465;-79
2022/05/22 01:21:28;;;;;;;6.07;3.70;;;13.10;99.90;;;;;;5015036;28;20937;-80
2022/05/22 01:23:57;;;;;;;5.87;4.53;;;13.10;99.90;;;;;;5015372;28;20968;-80
2022/05/22 01:26:26;;;;;;;8.90;4.07;;;13.10;99.90;;;;;;5015531;28;20453;-80
2022/05/22 01:28:53;;;;;;;6.93;3.87;;;13.10;99.90;;;;;;5017565;28;20453;-80
2022/05/22 01:31:20;;;;;;;8.07;4.33;;;13.00;99.90;;;;;;5015642;28;20991;-82
2022/05/22 01:33:48;;;;;;;5.93;3.80;;;13.00;99.90;;;;;;5016128;28;20537;-79
2022/05/22 01:36:17;;;;;;;7.73;3.80;;;12.90;99.90;;;;;;5019281;28;20457;-80
2022/05/22 01:38:44;;;;;;;11.47;4.00;;;12.90;99.90;;;;;;4996923;28;20965;-79
2022/05/22 01:41:12;;;;;;;8.53;4.17;;;12.80;99.90;;;;;;5005962;28;20493;-79
2022/05/22 01:43:40;;;;;;;4.60;3.00;;;12.80;99.90;;;;;;5015115;28;20457;-80
2022/05/22 01:46:07;;;;;;;6.27;3.87;;;12.70;99.90;;;;;;5013684;28;20487;-80
2022/05/22 01:48:34;;;;;;;8.60;4.37;;;12.70;99.90;;;;;;5014855;28;20882;-80
2022/05/22 01:51:01;;;;;;;9.47;4.10;;;12.60;99.90;;;;;;5013338;28;20471;-78
2022/05/22 01:53:28;;;;;;;6.20;3.57;;;12.60;99.90;;;;;;5014606;28;20443;-79
2022/05/22 01:55:55;;;;;;;9.70;3.87;;;12.60;99.90;;;;;;5013711;28;20459;-79
2022/05/22 01:58:25;;;;;;;8.43;4.90;;;12.50;99.90;;;;;;5013546;28;20459;-79
2022/05/22 02:00:52;;;;;;;9.17;4.20;;;12.50;99.90;;;;;;5012775;28;20496;-78
2022/05/22 02:03:19;;;;;;;8.47;4.67;;;12.50;99.90;;;;;;5013820;28;20508;-79
2022/05/22 02:05:46;;;;;;;10.50;5.07;;;12.50;99.90;;;;;;5014002;28;20446;-79
2022/05/22 02:08:19;;;;;;;8.40;5.37;;;12.40;99.90;;;;;;5013830;28;20457;-79
2022/05/22 02:10:50;;;;;;;9.70;4.80;;;12.40;99.90;;;;;;5012854;28;20534;-80
2022/05/22 02:13:20;;;;;;;7.13;4.13;;;12.40;99.90;;;;;;5013611;28;20519;-79
2022/05/22 02:15:48;;;;;;;8.97;4.10;;;12.40;99.90;;;;;;5013076;28;20455;-79
2022/05/22 02:18:16;;;;;;;7.50;3.93;;;12.40;99.90;;;;;;5013895;28;20460;-81
2022/05/22 02:20:43;;;;;;;7.90;4.60;;;12.40;99.90;;;;;;5012082;28;20488;-80
2022/05/22 02:23:13;;;;;;;7.13;4.10;;;12.40;99.90;;;;;;5013326;28;20772;-79
2022/05/22 02:25:43;;;;;;;6.97;4.30;;;12.50;99.90;;;;;;5012873;28;20495;-79
2022/05/22 02:28:14;;;;;;;10.93;4.47;;;12.50;99.90;;;;;;5017483;28;20487;-80
2022/05/22 02:30:44;;;;;;;7.47;4.63;;;12.40;99.90;;;;;;5014281;28;20453;-79
2022/05/22 02:33:14;;;;;;;10.40;5.07;;;12.40;99.90;;;;;;5014674;28;20440;-80
2022/05/22 02:35:41;;;;;;;8.13;4.33;;;12.40;99.90;;;;;;5015092;28;20449;-80
2022/05/22 02:38:10;;;;;;;6.50;4.47;;;12.40;99.90;;;;;;5014453;28;20903;-80
2022/05/22 02:40:39;;;;;;;6.73;4.00;;;12.40;99.90;;;;;;5013175;28;20450;-80
2022/05/22 02:43:07;;;;;;;9.30;4.83;;;12.40;99.90;;;;;;5014232;28;20468;-80
2022/05/22 02:45:40;;;;;;;7.10;4.73;;;12.40;99.90;;;;;;5015051;28;20464;-80
2022/05/22 02:48:08;;;;;;;9.43;4.40;;;12.30;99.90;;;;;;5019772;28;20452;-80
2022/05/22 02:50:57;;;;;;;7.10;4.37;;;12.20;99.90;;;;;;5034610;28;20963;-79
2022/05/22 02:53:27;;;;;;;7.17;4.40;;;12.20;99.90;;;;;;5016147;28;20970;-79
2022/05/22 02:55:54;;;;;;;3.57;2.53;;;12.10;99.90;;;;;;5014767;28;20464;-79
2022/05/22 02:58:23;;;;;;;5.67;3.70;;;12.60;99.90;;;;;;5013748;28;20453;-82
2022/05/22 03:00:50;;;;;;;5.93;3.33;;;13.30;99.90;;;;;;5013588;28;20495;-81
2022/05/22 03:03:17;;;;;;;7.73;3.43;;;13.60;99.90;;;;;;5014961;28;20523;-83
2022/05/22 03:08:36;;;;;;;6.67;3.40;;;14.30;99.90;;;;;;5014578;28;21015;-81
2022/05/22 03:11:04;;;;;;;9.07;3.60;;;14.50;99.90;;;;;;5014466;28;20464;-81
2022/05/22 03:13:31;;;;;;;4.27;3.30;;;14.30;99.90;;;;;;5013916;28;20463;-82
2022/05/22 03:15:58;;;;;;;4.87;2.73;;;14.10;99.90;;;;;;5015288;28;20470;-81
2022/05/22 03:18:24;;;;;;;6.50;3.57;;;13.90;99.90;;;;;;5014855;28;20486;-81
2022/05/22 03:20:51;;;;;;;5.80;3.10;;;13.80;99.90;;;;;;5013239;28;20474;-81
2022/05/22 03:23:18;;;;;;;6.47;3.50;;;13.60;99.90;;;;;;5013681;28;20461;-80
2022/05/22 03:25:47;;;;;;;8.50;3.87;;;13.40;99.90;;;;;;5015398;28;20459;-81
2022/05/22 03:28:15;;;;;;;13.00;3.70;;;13.30;99.90;;;;;;5017279;28;20457;-82
2022/05/22 03:30:42;;;;;;;5.27;3.80;;;13.20;99.90;;;;;;5016884;28;20439;-79
2022/05/22 03:33:42;;;;;;;11.03;4.07;;;13.10;99.90;;;;;;5017126;28;20471;-80
2022/05/22 03:36:10;;;;;;;6.67;4.20;;;13.00;99.90;;;;;;5005737;28;20908;-81
2022/05/22 03:38:40;;;;;;;5.63;3.10;;;12.90;99.90;;;;;;5016793;28;20459;-81
2022/05/22 03:41:08;;;;;;;8.03;3.50;;;12.80;99.90;;;;;;5015859;28;20496;-81
2022/05/22 03:43:38;;;;;;;8.07;4.20;;;12.80;99.90;;;;;;5016520;28;20974;-81
2022/05/22 03:46:04;;;;;;;6.50;5.00;;;12.80;99.90;;;;;;5016123;28;20464;-78
2022/05/22 03:48:31;;;;;;;5.60;3.67;;;12.70;99.90;;;;;;5016411;28;20858;-81
2022/05/22 03:50:58;;;;;;;7.70;3.73;;;12.70;99.90;;;;;;5016444;28;20481;-81
2022/05/22 03:53:25;;;;;;;7.83;4.13;;;12.70;99.90;;;;;;5016943;28;20462;-82
2022/05/22 03:55:52;;;;;;;8.33;5.10;;;12.70;99.90;;;;;;5016897;28;20447;-81
2022/05/22 03:58:20;;;;;;;7.10;3.60;;;12.70;99.90;;;;;;5016816;28;20468;-81
2022/05/22 04:00:47;;;;;;;7.10;3.93;;;12.60;99.90;;;;;;5015446;28;20455;-81
2022/05/22 04:03:14;;;;;;;5.17;3.90;;;12.60;99.90;;;;;;5017239;28;20457;-81
2022/05/22 04:05:41;;;;;;;8.20;3.83;;;12.60;99.90;;;;;;5016671;28;20450;-80
2022/05/22 04:08:08;;;;;;;9.70;4.37;;;12.60;99.90;;;;;;5016471;28;20462;-81
2022/05/22 04:13:07;;;;;;;6.50;4.27;;;12.60;99.90;;;;;;4997298;28;20463;-78
2022/05/22 04:15:35;;;;;;;5.00;3.50;;;12.60;99.90;;;;;;5004160;28;20848;-79
2022/05/22 04:18:03;;;;;;;5.80;3.97;;;12.60;99.90;;;;;;4993159;28;20451;-79
2022/05/22 04:20:29;;;;;;;9.53;5.47;;;12.60;99.90;;;;;;4995263;28;20445;-78
2022/05/22 04:25:52;;;;;;;9.57;5.17;;;12.60;99.90;;;;;;4999165;28;20451;-80
2022/05/22 04:28:19;;;;;;;9.90;4.40;;;12.70;99.90;;;;;;5009532;28;20537;-79
2022/05/22 04:30:47;;;;;;;9.00;4.73;;;12.70;99.90;;;;;;5018033;28;20929;-78
2022/05/22 04:33:14;;;;;;;7.60;4.73;;;12.70;99.90;;;;;;5019309;28;20834;-78
2022/05/22 04:35:42;;;;;;;10.07;4.77;;;12.80;99.90;;;;;;5018507;28;20445;-80
2022/05/22 04:38:09;;;;;;;9.43;5.30;;;12.80;99.90;;;;;;5011850;28;20454;-79
2022/05/22 04:40:35;;;;;;;7.50;4.10;;;13.00;99.90;;;;;;5008769;28;20968;-79
2022/05/22 04:43:04;;;;;;;9.87;5.23;;;13.00;99.90;;;;;;5005104;28;20878;-78
2022/05/22 04:45:31;;;;;;;8.37;4.90;;;13.10;99.90;;;;;;5004660;28;20946;-78
2022/05/22 04:48:00;;;;;;;5.73;4.70;;;13.20;99.90;;;;;;5012358;28;20448;-79
2022/05/22 04:50:27;;;;;;;7.97;4.70;;;13.40;99.90;;;;;;5010059;28;20460;-80
2022/05/22 04:52:55;;;;;;;8.80;5.97;;;13.40;99.90;;;;;;5019785;28;20458;-80
2022/05/22 04:55:22;;;;;;;11.30;5.80;;;13.50;99.90;;;;;;5030411;28;20479;-80
2022/05/22 04:57:49;;;;;;;10.43;6.60;;;13.50;99.90;;;;;;5030658;28;20479;-80
2022/05/22 05:00:17;;;;;;;10.47;6.57;;;13.60;99.90;;;;;;5014466;28;20443;-80
2022/05/22 05:02:43;;;;;;;6.23;5.53;;;13.60;99.90;;;;;;5000687;28;20496;-80
2022/05/22 05:05:12;;;;;;;11.23;5.97;;;13.60;99.90;;;;;;5001484;28;20884;-80
2022/05/22 05:07:39;;;;;;;10.23;6.47;;;13.70;99.90;;;;;;4997858;28;20450;-80
2022/05/22 05:10:08;;;;;;;9.43;5.30;;;13.70;99.90;;;;;;5001819;28;20455;-80
2022/05/22 05:12:38;;;;;;;6.70;5.27;;;13.70;99.90;;;;;;4998925;28;20471;-80
2022/05/22 05:15:06;;;;;;;7.20;5.20;;;13.70;99.90;;;;;;5003197;28;20514;-81
2022/05/22 05:17:33;;;;;;;7.03;5.17;;;13.80;99.90;;;;;;5001303;28;20446;-80
2022/05/22 05:20:00;;;;;;;10.77;6.23;;;13.80;99.90;;;;;;5001132;28;20950;-79
2022/05/22 05:22:31;;;;;;;11.93;5.13;;;13.90;99.90;;;;;;4999942;28;20470;-80
2022/05/22 05:24:58;;;;;;;11.70;5.60;;;13.90;99.90;;;;;;5000013;28;20450;-82
2022/05/22 05:27:24;;;;;;;9.40;5.87;;;14.00;99.90;;;;;;5003667;28;20472;-79
2022/05/22 05:29:51;;;;;;;11.30;6.13;;;14.00;99.90;;;;;;5001131;28;20941;-80
2022/05/22 05:32:18;;;;;;;7.23;5.23;;;13.90;99.90;;;;;;4998527;28;20858;-81
2022/05/22 05:34:45;;;;;;;7.57;5.37;;;14.10;99.90;;;;;;5001885;28;20490;-81
2022/05/22 05:37:12;;;;;;;11.07;6.43;;;14.20;99.90;;;;;;5000009;28;20787;-81
2022/05/22 05:39:40;;;;;;;10.13;6.13;;;14.30;99.90;;;;;;5008856;28;20446;-81
2022/05/22 05:42:07;;;;;;;9.87;5.90;;;14.40;99.90;;;;;;5017695;28;20499;-79
2022/05/22 05:44:35;;;;;;;11.27;6.43;;;14.50;99.90;;;;;;5000627;28;20457;-80
2022/05/22 05:47:01;;;;;;;14.63;6.37;;;14.60;99.90;;;;;;5006125;28;20476;-80
2022/05/22 05:49:28;;;;;;;8.60;5.63;;;14.70;99.90;;;;;;5004895;28;20447;-79
2022/05/22 05:51:55;;;;;;;7.13;5.43;;;14.70;99.90;;;;;;5007082;28;20462;-77
2022/05/22 05:54:23;;;;;;;10.87;5.03;;;14.80;99.90;;;;;;5005134;28;20551;-79
2022/05/22 05:56:51;;;;;;;8.37;4.90;;;14.90;99.90;;;;;;5006280;28;20470;-78
2022/05/22 05:59:18;;;;;;;9.90;5.17;;;15.10;99.90;;;;;;5005681;28;20457;-80
2022/05/22 06:01:45;;;;;;;7.30;5.20;;;15.30;99.90;;;;;;5002485;28;20499;-78
2022/05/22 06:04:12;;;;;;;7.50;4.97;;;15.40;99.90;;;;;;5007682;28;20475;-79
2022/05/22 06:06:39;;;;;;;10.47;5.30;;;15.60;99.90;;;;;;5005833;28;20514;-80
2022/05/22 06:09:08;;;;;;;8.40;4.93;;;15.70;99.90;;;;;;5004845;28;20508;-80
2022/05/22 06:11:34;;;;;;;7.00;5.20;;;15.90;99.90;;;;;;5005629;28;20484;-78
2022/05/22 06:14:03;;;;;;;7.73;5.47;;;16.00;99.90;;;;;;5004136;28;20529;-80
2022/05/22 06:16:30;;;;;;;9.13;5.17;;;16.10;99.90;;;;;;5006883;28;20461;-78
2022/05/22 06:18:57;;;;;;;7.90;4.60;;;16.20;99.90;;;;;;5005477;28;20452;-79
2022/05/22 06:21:23;;;;;;;9.03;5.20;;;16.30;99.90;;;;;;5005654;28;20465;-79
2022/05/22 06:23:50;;;;;;;10.60;5.13;;;16.30;99.90;;;;;;5004612;28;20481;-78
2022/05/22 06:26:19;;;;;;;9.33;5.60;;;16.50;99.90;;;;;;4998675;28;20461;-80
2022/05/22 06:28:46;;;;;;;12.20;5.70;;;16.70;99.90;;;;;;5000990;28;20458;-79
2022/05/22 06:31:15;;;;;;;12.33;6.63;;;16.90;99.90;;;;;;5003212;28;20624;-79
2022/05/22 06:33:42;;;;;;;8.37;5.90;;;17.00;99.90;;;;;;4997491;28;20454;-79
2022/05/22 06:36:09;;;;;;;10.37;6.50;;;17.20;99.90;;;;;;5009285;28;20443;-78
2022/05/22 06:41:20;;;;;;;8.60;5.20;;;17.10;99.90;;;;;;5000488;28;20480;-78
2022/05/22 06:43:49;;;;;;;8.17;4.63;;;17.10;99.90;;;;;;5000901;28;20871;-78
2022/05/22 06:46:18;;;;;;;10.63;4.87;;;16.90;99.90;;;;;;5001434;28;20488;-80
2022/05/22 06:48:45;;;;;;;11.70;5.67;;;16.70;99.90;;;;;;5000357;28;20863;-79
2022/05/22 06:51:11;;;;;;;9.37;4.47;;;16.50;99.90;;;;;;4999471;28;20976;-79
2022/05/22 06:53:38;;;;;;;8.90;4.77;;;16.50;99.90;;;;;;5001168;28;20450;-80
2022/05/22 06:56:06;;;;;;;9.00;4.87;;;16.60;99.90;;;;;;5018120;28;20464;-81
2022/05/22 06:58:32;;;;;;;4.80;3.60;;;16.70;99.90;;;;;;5021491;28;20457;-80
2022/05/22 07:00:59;;;;;;;8.07;4.57;;;16.80;99.90;;;;;;5019783;28;20481;-80
2022/05/22 07:03:27;;;;;;;10.97;4.30;;;16.80;99.90;;;;;;5004810;28;20497;-80
2022/05/22 07:05:54;;;;;;;6.57;3.70;;;16.90;99.90;;;;;;5005625;28;20462;-79
2022/05/22 07:08:21;;;;;;;8.43;3.70;;;16.90;99.90;;;;;;5004291;28;20457;-79
2022/05/22 07:13:32;;;;;;;5.63;3.57;;;17.00;99.90;;;;;;5004077;28;20457;-78
2022/05/22 07:16:00;;;;;;;8.77;4.27;;;17.00;99.90;;;;;;5005484;28;20529;-80
2022/05/22 07:18:28;;;;;;;6.37;3.87;;;17.00;99.90;;;;;;4994948;28;20518;-80
2022/05/22 07:20:56;;;;;;;7.77;3.60;;;16.90;99.90;;;;;;5004305;28;20458;-81
2022/05/22 07:23:23;;;;;;;7.90;3.60;;;17.00;99.90;;;;;;5008909;28;20514;-80
2022/05/22 07:25:51;;;;;;;5.30;3.20;;;17.10;99.90;;;;;;5003392;28;20552;-80
2022/05/22 07:28:18;;;;;;;9.60;3.57;;;17.20;99.90;;;;;;5006215;28;20461;-79
2022/05/22 07:33:20;;;;;;;11.17;4.23;;;17.30;99.90;;;;;;5048356;22;20582;-78
2022/05/22 07:35:56;;;;;;;7.37;3.20;;;17.40;99.90;;;;;;5025595;28;20520;-80
2022/05/22 07:38:23;;;;;;;5.03;3.00;;;17.40;99.90;;;;;;5023236;28;20857;-80
2022/05/22 07:40:49;;;;;;;10.27;3.17;;;17.50;99.90;;;;;;5015123;28;20466;-79
2022/05/22 07:43:17;;;;;;;6.60;3.77;;;17.60;99.90;;;;;;5046203;28;20879;-78
2022/05/22 07:45:44;;;;;;;8.60;3.40;;;17.60;99.90;;;;;;5044262;28;20490;-80
2022/05/22 07:48:10;;;;;;;9.03;3.37;;;17.70;99.90;;;;;;5042101;28;20454;-80
2022/05/22 07:50:37;;;;;;;6.57;3.17;;;17.70;99.90;;;;;;5044912;28;20461;-80
2022/05/22 07:53:05;;;;;;;10.03;3.43;;;17.80;99.90;;;;;;5036279;28;20545;-80
2022/05/22 07:55:32;;;;;;;7.47;2.80;;;17.90;99.90;;;;;;5043875;28;20457;-79
2022/05/22 07:57:59;;;;;;;7.70;3.20;;;18.10;99.90;;;;;;5029417;28;20469;-81
2022/05/22 08:00:26;;;;;;;7.57;3.30;;;18.20;99.90;;;;;;5040185;28;20456;-83
2022/05/22 08:02:53;;;;;;;7.03;2.70;;;18.30;99.90;;;;;;5043033;28;20525;-80
2022/05/22 08:05:21;;;;;;;9.67;2.60;;;18.40;99.90;;;;;;5044895;28;20457;-81
2022/05/22 08:07:48;;;;;;;5.93;2.37;;;18.60;99.90;;;;;;5043040;28;20478;-81
2022/05/22 08:10:17;;;;;;;8.18;2.88;;;18.70;99.90;;;;;;5040445;28;20441;-78
2022/05/22 08:12:47;;;;;;;5.03;2.50;;;18.90;99.90;;;;;;5031632;28;20229;-82
2022/05/22 08:15:17;;;;;;;9.77;3.53;;;19.00;99.90;;;;;;5039611;28;20478;-79
2022/05/22 08:17:44;;;;;;;5.73;2.50;;;19.20;99.90;;;;;;5042928;28;20451;-79
2022/05/22 08:20:14;;;;;;;7.37;2.50;;;19.40;99.90;;;;;;5041690;28;20531;-79
2022/05/22 08:22:44;;;;;;;5.27;2.00;;;19.50;99.90;;;;;;5048069;28;20561;-79
2022/05/22 08:25:12;;;;;;;10.97;2.60;;;19.60;99.90;;;;;;5054491;28;20451;-81
2022/05/22 08:27:40;;;;;;;6.53;2.27;;;19.90;99.90;;;;;;5038175;28;20457;-78
2022/05/22 08:30:08;;;;;;;6.67;2.50;;;20.10;99.90;;;;;;5048006;28;20524;-79
2022/05/22 08:32:37;;;;;;;7.43;2.67;;;20.20;99.90;;;;;;5050757;28;20548;-79
2022/05/22 08:35:05;;;;;;;7.07;2.50;;;20.40;99.90;;;;;;5048735;28;20539;-77
2022/05/22 08:37:32;;;;;;;8.50;2.93;;;20.40;99.90;;;;;;5045536;28;20461;-78
2022/05/22 08:40:01;;;;;;;6.60;2.30;;;20.50;99.90;;;;;;5036702;28;20461;-78
2022/05/22 08:42:35;;;;;;;7.93;2.50;;;20.70;99.90;;;;;;5051190;28;20478;-80
2022/05/22 08:45:09;;;;;;;5.57;2.23;;;20.70;99.90;;;;;;5040444;28;20897;-79
2022/05/22 08:47:44;;;;;;;5.17;2.57;;;20.90;99.90;;;;;;5033992;28;20537;-82
2022/05/22 08:50:14;;;;;;;9.40;3.23;;;21.20;99.90;;;;;;5035234;28;20799;-80
2022/05/22 08:52:46;;;;;;;9.40;2.80;;;21.20;99.90;;;;;;5029517;28;20460;-80
2022/05/22 08:55:24;;;;;;;6.10;3.00;;;21.40;99.90;;;;;;5036634;28;20509;-79
2022/05/22 09:00:43;;;;;;;9.47;2.83;;;21.70;99.90;;;;;;5046725;28;20475;-81
2022/05/22 09:03:18;;;;;;;6.27;2.20;;;21.90;99.90;;;;;;5050684;28;20634;-80
2022/05/22 09:05:48;;;;;;;4.53;2.20;;;22.10;99.90;;;;;;5046026;28;20551;-80
2022/05/22 09:08:21;;;;;;;9.63;3.00;;;22.10;99.90;;;;;;5044652;28;20548;-79
2022/05/22 09:11:01;;;;;;;8.17;3.10;;;22.10;99.90;;;;;;5057184;28;20504;-80
2022/05/22 09:13:34;;;;;;;6.37;2.80;;;22.10;99.90;;;;;;5047771;28;20484;-82
2022/05/22 09:16:12;;;;;;;7.53;3.27;;;22.10;99.90;;;;;;5045099;28;20459;-82
2022/05/22 09:18:45;;;;;;;7.47;3.27;;;22.30;99.90;;;;;;5042282;28;20484;-80
2022/05/22 09:21:25;;;;;;;10.90;5.20;;;22.40;99.90;;;;;;5040578;28;21034;-80
2022/05/22 09:23:59;;;;;;;10.43;3.97;;;22.50;99.90;;;;;;5050773;28;20485;-79
2022/05/22 09:26:37;;;;;;;7.17;3.03;;;22.80;99.90;;;;;;5046642;28;20455;-83
2022/05/22 09:29:14;;;;;;;7.87;3.80;;;23.10;99.90;;;;;;5044261;28;20441;-80
2022/05/22 09:31:48;;;;;;;9.73;4.60;;;23.20;99.90;;;;;;5038466;28;20549;-82
2022/05/22 09:34:25;;;;;;;8.03;3.50;;;23.50;99.90;;;;;;5046792;28;20471;-80
2022/05/22 09:37:07;;;;;;;8.80;4.83;;;23.90;99.90;;;;;;5046607;28;20433;-81
2022/05/22 09:40:02;;;;;;;7.43;4.10;;;24.00;99.90;;;;;;5039988;28;20457;-80
2022/05/22 09:42:45;;;;;;;13.10;5.47;;;24.30;99.90;;;;;;5047403;28;20883;-78
2022/05/22 09:45:28;;;;;;;8.17;4.50;;;24.50;99.90;;;;;;5043082;28;20445;-80
2022/05/22 09:48:33;;;;;;;6.70;3.33;;;25.00;99.90;;;;;;5049527;28;20452;-79
2022/05/22 09:51:08;;;;;;;10.87;5.07;;;25.30;99.90;;;;;;5044830;28;22452;-79
2022/05/22 09:53:53;;;;;;;9.70;3.77;;;25.00;99.90;;;;;;5043822;28;20447;-82
2022/05/22 09:56:33;;;;;;;7.70;3.90;;;25.60;99.90;;;;;;5049073;28;20744;-80
2022/05/22 09:59:29;;;;;;;10.03;4.40;;;26.10;99.90;;;;;;5043050;28;20487;-79
2022/05/22 10:02:00;;;;;;;9.40;4.00;;;26.40;99.90;;;;;;5041068;28;20464;-79
2022/05/22 10:04:37;;;;;;;10.17;4.37;;;26.40;99.90;;;;;;5045166;28;20518;-81
2022/05/22 10:07:15;;;;;;;7.90;4.00;;;26.50;99.90;;;;;;5048568;28;20497;-79
2022/05/22 10:09:53;;;;;;;10.73;4.23;;;26.90;99.90;;;;;;5044617;28;20436;-79
2022/05/22 10:12:33;;;;;;;7.30;4.50;;;27.50;99.90;;;;;;5042572;28;20527;-78
2022/05/22 10:15:30;;;;;;;7.47;3.43;;;27.00;99.90;;;;;;5035966;28;20452;-79
2022/05/22 10:18:10;;;;;;;5.50;3.27;;;27.60;99.90;;;;;;5026945;28;20454;-79
2022/05/22 10:20:50;;;;;;;7.50;3.83;;;27.30;99.90;;;;;;5034841;28;20472;-80
2022/05/22 10:23:31;;;;;;;9.00;4.00;;;27.40;99.90;;;;;;5032403;28;20591;-80
2022/05/22 10:26:09;;;;;;;8.93;4.37;;;28.00;99.50;;;;;;5033291;28;21137;-79
2022/05/22 10:28:43;;;;;;;9.43;4.20;;;28.50;99.90;;;;;;5029667;28;20457;-80
2022/05/22 10:31:17;;;;;;;8.30;4.27;;;28.80;97.60;;;;;;5038758;28;20521;-79
2022/05/22 10:33:53;;;;;;;9.50;4.63;;;28.90;99.90;;;;;;5038746;28;20444;-80
2022/05/22 10:36:25;;;;;;;6.20;4.10;;;29.50;98.60;;;;;;5043964;28;21106;-80
2022/05/22 10:38:55;;;;;;;9.07;5.27;;;30.00;97.50;;;;;;5029936;28;20445;-80
2022/05/22 10:44:16;;;;;;;5.00;3.20;;;30.80;95.00;;;;;;5033118;28;20943;-81
2022/05/22 10:46:48;;;;;;;7.80;4.33;;;31.30;90.70;;;;;;5024240;28;20456;-79
2022/05/22 10:49:15;;;;;;;8.00;4.20;;;31.70;89.80;;;;;;5036461;28;20453;-79
2022/05/22 10:51:56;;;;;;;5.87;3.00;;;31.90;90.30;;;;;;5028900;28;20536;-80
2022/05/22 10:54:27;;;;;;;6.53;3.17;;;32.40;90.00;;;;;;5029988;28;20484;-81
2022/05/22 10:56:55;;;;;;;6.03;3.30;;;32.90;86.90;;;;;;5046878;28;20463;-80
2022/05/22 10:59:23;;;;;;;7.20;3.60;;;33.00;73.90;;;;;;5037042;28;20453;-80
2022/05/22 11:02:00;;;;;;;5.23;3.60;;;33.50;81.20;;;;;;5037948;28;20472;-80
2022/05/22 11:04:37;;;;;;;6.37;3.97;;;33.80;74.30;;;;;;5036072;28;20544;-80
2022/05/22 11:07:07;;;;;;;6.97;3.67;;;34.60;76.30;;;;;;5036456;28;20460;-79
2022/05/22 11:09:36;;;;;;;6.50;3.50;;;35.10;72.00;;;;;;5035076;28;20449;-82
2022/05/22 11:12:07;;;;;;;4.30;2.40;;;35.60;70.60;;;;;;5032992;28;20464;-80
2022/05/22 11:14:35;;;;;;;7.30;3.80;;;35.60;69.20;;;;;;5034977;28;20450;-81
2022/05/22 11:17:09;;;;;;;5.93;3.47;;;35.90;67.70;;;;;;5048524;28;20528;-79
2022/05/22 11:19:40;;;;;;;5.60;2.90;;;35.90;65.30;;;;;;5049100;28;20838;-82
2022/05/22 11:22:32;;;;;;;6.80;4.07;;;36.00;66.30;;;;;;5047513;28;20497;-80
2022/05/22 11:25:12;;;;;;;6.77;3.47;;;36.20;64.20;;;;;;5046036;28;20528;-80
2022/05/22 11:28:01;;;;;;;5.73;3.63;;;36.30;61.20;;;;;;5045126;28;20512;-80
2022/05/22 11:30:38;;;;;;;4.90;3.60;;;36.60;58.00;;;;;;5041736;28;20451;-79
2022/05/22 11:33:23;;;;;;;5.30;3.60;;;36.20;56.70;;;;;;5035660;28;20483;-79
2022/05/22 11:36:03;;;;;;;5.33;3.93;;;37.10;59.00;;;;;;5027888;28;20520;-80
2022/05/22 11:38:44;;;;;;;5.13;3.20;;;37.50;55.00;;;;;;5045831;28;20440;-81
2022/05/22 11:41:21;;;;;;;6.03;3.10;;;37.20;56.90;;;;;;5034170;28;20470;-79
2022/05/22 11:44:02;;;;;;;6.37;4.13;;;35.80;55.40;;;;;;5048162;28;20483;-79
2022/05/22 11:46:40;;;;;;;7.50;3.80;;;34.50;59.10;;;;;;5041313;28;20463;-80
2022/05/22 11:49:22;;;;;;;6.87;4.30;;;34.70;61.00;;;;;;5040054;28;20491;-80
2022/05/22 11:55:09;;;;;;;8.43;3.87;;;36.70;57.00;;;;;;5046753;28;20433;-80
2022/05/22 11:57:40;;;;;;;6.00;3.87;;;36.00;58.30;;;;;;5043524;28;20471;-80
2022/05/22 12:00:15;;;;;;;7.30;3.33;;;36.30;61.70;;;;;;5042162;28;20437;-80
2022/05/22 12:03:10;;;;;;;7.13;3.87;;;37.00;59.50;;;;;;5047020;28;20496;-80
2022/05/22 12:05:46;;;;;;;6.20;4.00;;;37.40;59.00;;;;;;5045566;28;20456;-81
2022/05/22 12:08:38;;;;;;;6.73;3.00;;;37.50;56.20;;;;;;5046246;28;20449;-81
2022/05/22 12:11:14;;;;;;;6.27;3.00;;;38.40;55.40;;;;;;5029012;28;20476;-80
2022/05/22 12:13:50;;;;;;;6.47;4.10;;;39.20;55.20;;;;;;5042210;28;20444;-79
2022/05/22 12:16:22;;;;;;;5.80;3.63;;;39.00;52.00;;;;;;5046672;28;20484;-82
2022/05/22 12:19:05;;;;;;;7.73;4.50;;;39.10;50.80;;;;;;5041268;28;20456;-80
2022/05/22 12:21:48;;;;;;;5.70;3.63;;;39.20;51.80;;;;;;5034774;28;20471;-80
2022/05/22 12:24:24;;;;;;;8.70;4.00;;;40.10;49.70;;;;;;5044098;28;20484;-81
2022/05/22 12:26:54;;;;;;;7.60;3.53;;;40.30;48.00;;;;;;5044087;28;20440;-81
2022/05/22 12:29:27;;;;;;;4.90;3.40;;;38.40;47.40;;;;;;5041298;28;20548;-80
2022/05/22 12:31:56;;;;;;;8.13;3.80;;;38.00;53.20;;;;;;5040394;28;20488;-79
2022/05/22 12:34:31;;;;;;;5.83;3.73;;;38.00;49.40;;;;;;5026718;28;20433;-82
2022/05/22 12:37:00;;;;;;;7.50;3.80;;;38.30;54.10;;;;;;5041004;28;20452;-80
2022/05/22 12:39:32;;;;;;;5.73;3.30;;;38.40;51.40;;;;;;5035789;28;20488;-81
2022/05/22 12:42:05;;;;;;;5.30;3.77;;;39.50;51.70;;;;;;5042043;28;20512;-81
2022/05/22 12:44:32;;;;;;;5.47;3.40;;;39.40;48.70;;;;;;5040760;28;20512;-82
2022/05/22 12:46:59;;;;;;;7.00;3.30;;;39.60;48.00;;;;;;5040492;28;21352;-81
2022/05/22 12:49:29;;;;;;;7.07;3.63;;;40.10;50.80;;;;;;5039633;28;20532;-82
2022/05/22 12:52:01;;;;;;;5.00;3.43;;;40.00;48.90;;;;;;5051773;22;20532;-82
2022/05/22 12:54:31;;;;;;;5.10;3.30;;;40.90;49.10;;;;;;4992357;28;20446;-82
2022/05/22 12:57:17;;;;;;;10.20;2.83;;;41.10;47.80;;;;;;4992254;28;20534;-82
2022/05/22 12:59:55;;;;;;;4.40;2.90;;;40.60;49.20;;;;;;4990178;28;20481;-82
2022/05/22 13:02:32;;;;;;;4.93;2.93;;;41.10;46.50;;;;;;4997419;28;20513;-81
2022/05/22 13:05:01;;;;;;;9.67;4.00;;;41.70;46.90;;;;;;4997593;28;20565;-81
2022/05/22 13:07:32;;;;;;;8.30;3.83;;;41.70;46.20;;;;;;4999646;28;20463;-83
2022/05/22 13:10:00;;;;;;;7.43;3.57;;;41.80;47.50;;;;;;4996400;28;20534;-83
2022/05/22 13:12:32;;;;;;;7.47;3.60;;;41.00;45.30;;;;;;5000466;28;20521;-83
2022/05/22 13:15:02;;;;;;;6.27;3.00;;;38.50;46.00;;;;;;5000460;28;20498;-83
2022/05/22 13:17:36;;;;;;;6.80;4.00;;;36.50;49.00;;;;;;5000997;28;20489;-83
2022/05/22 13:20:06;;;;;;;8.53;2.87;;;34.70;49.40;;;;;;5005383;28;20478;-83
2022/05/22 13:22:35;;;;;;;6.67;3.10;;;33.70;52.80;;;;;;5000464;28;20887;-84
2022/05/22 13:25:04;;;;;;;6.10;3.03;;;32.60;51.10;;;;;;5001511;28;20553;-84
2022/05/22 13:27:42;;;;;;;6.47;3.23;;;32.00;54.60;;;;;;4993242;28;20545;-84
2022/05/22 13:30:18;;;;;;;7.47;4.30;;;31.90;54.70;;;;;;4998134;28;20458;-85
2022/05/22 13:32:52;;;;;;;5.77;3.40;;;32.40;54.90;;;;;;4997456;28;21012;-84